createdAt,value
2018-04-30T00:00:38.540Z,0.00
2018-04-30T00:01:38.616Z,0.00
2018-04-30T00:02:38.675Z,0.00
2018-04-30T00:03:38.740Z,0.00
2018-04-30T00:04:38.799Z,0.00
2018-04-30T00:05:38.864Z,0.00
2018-04-30T00:06:38.928Z,0.00
2018-04-30T00:07:39.000Z,0.00
2018-04-30T00:08:39.064Z,0.00
2018-04-30T00:09:39.120Z,0.00
2018-04-30T00:10:39.184Z,0.00
2018-04-30T00:11:39.252Z,0.00
2018-04-30T00:12:39.316Z,0.00
2018-04-30T00:13:39.529Z,0.00
2018-04-30T00:14:39.444Z,0.00
2018-04-30T00:15:39.509Z,0.00
2018-04-30T00:16:39.580Z,0.00
2018-04-30T00:17:39.641Z,0.00
2018-04-30T00:18:39.708Z,0.00
2018-04-30T00:19:39.772Z,0.00
2018-04-30T00:20:39.833Z,0.00
2018-04-30T00:21:39.897Z,0.00
2018-04-30T00:22:39.958Z,0.00
2018-04-30T00:23:40.034Z,0.00
2018-04-30T00:24:40.097Z,0.00
2018-04-30T00:25:40.153Z,0.00
2018-04-30T00:26:40.217Z,0.00
2018-04-30T00:27:40.285Z,0.00
2018-04-30T00:28:40.553Z,0.00
2018-04-30T00:29:40.413Z,0.00
2018-04-30T00:30:40.477Z,0.00
2018-04-30T00:31:40.541Z,0.00
2018-04-30T00:32:40.617Z,0.00
2018-04-30T00:33:40.703Z,0.00
2018-04-30T00:34:40.741Z,0.00
2018-04-30T00:35:40.813Z,0.00
2018-04-30T00:36:40.866Z,0.00
2018-04-30T00:37:40.933Z,0.00
2018-04-30T00:38:41.001Z,0.00
2018-04-30T00:39:41.073Z,0.00
2018-04-30T00:40:41.118Z,0.00
2018-04-30T00:41:41.185Z,0.00
2018-04-30T00:42:41.253Z,0.00
2018-04-30T00:43:41.317Z,0.00
2018-04-30T00:44:41.413Z,0.00
2018-04-30T00:45:41.445Z,0.00
2018-04-30T00:46:41.509Z,0.00
2018-04-30T00:47:41.576Z,0.00
2018-04-30T00:48:41.641Z,0.00
2018-04-30T00:49:41.709Z,0.00
2018-04-30T00:50:41.774Z,0.00
2018-04-30T00:51:41.837Z,0.00
2018-04-30T00:52:41.894Z,0.00
2018-04-30T00:53:41.962Z,0.00
2018-04-30T00:54:42.042Z,0.00
2018-04-30T00:55:42.094Z,0.00
2018-04-30T00:56:42.153Z,0.00
2018-04-30T00:57:42.223Z,0.00
2018-04-30T00:58:42.319Z,0.00
2018-04-30T00:59:42.371Z,0.00
2018-04-30T01:00:42.417Z,0.00
2018-04-30T01:01:42.482Z,0.00
2018-04-30T01:02:42.546Z,0.00
2018-04-30T01:03:42.618Z,0.00
2018-04-30T01:04:42.678Z,0.00
2018-04-30T01:05:42.742Z,0.00
2018-04-30T01:06:42.803Z,0.00
2018-04-30T01:07:42.866Z,0.00
2018-04-30T01:08:42.930Z,0.00
2018-04-30T01:09:43.003Z,0.00
2018-04-30T01:10:43.066Z,0.00
2018-04-30T01:11:43.131Z,0.00
2018-04-30T01:12:43.194Z,0.00
2018-04-30T01:13:43.257Z,0.00
2018-04-30T01:14:43.430Z,0.00
2018-04-30T01:15:43.387Z,0.00
2018-04-30T01:16:43.454Z,0.00
2018-04-30T01:17:43.514Z,0.00
2018-04-30T01:18:43.579Z,0.00
2018-04-30T01:19:43.651Z,0.00
2018-04-30T01:20:43.739Z,0.00
2018-04-30T01:21:43.812Z,0.00
2018-04-30T01:22:43.835Z,0.00
2018-04-30T01:23:43.903Z,0.00
2018-04-30T01:24:43.969Z,0.00
2018-04-30T01:25:44.035Z,0.00
2018-04-30T01:26:44.104Z,0.00
2018-04-30T01:27:44.159Z,0.00
2018-04-30T01:28:44.223Z,0.00
2018-04-30T01:29:44.306Z,0.00
2018-04-30T01:30:44.511Z,0.00
2018-04-30T01:31:44.415Z,0.00
2018-04-30T01:32:44.479Z,0.00
2018-04-30T01:33:44.547Z,0.00
2018-04-30T01:34:44.612Z,0.00
2018-04-30T01:35:44.683Z,0.00
2018-04-30T01:36:44.748Z,0.00
2018-04-30T01:37:44.808Z,0.00
2018-04-30T01:38:44.872Z,0.00
2018-04-30T01:39:44.935Z,0.00
2018-04-30T01:40:45.008Z,0.00
2018-04-30T01:41:45.072Z,0.00
2018-04-30T01:42:45.128Z,0.00
2018-04-30T01:43:45.196Z,0.00
2018-04-30T01:44:45.261Z,0.00
2018-04-30T01:45:45.324Z,0.00
2018-04-30T01:46:45.552Z,0.00
2018-04-30T01:47:45.452Z,0.00
2018-04-30T01:48:45.512Z,0.00
2018-04-30T01:49:45.584Z,0.00
2018-04-30T01:50:45.649Z,0.00
2018-04-30T01:51:45.720Z,0.00
2018-04-30T01:52:45.795Z,0.00
2018-04-30T01:53:45.837Z,0.00
2018-04-30T01:54:45.918Z,0.00
2018-04-30T01:55:45.973Z,0.00
2018-04-30T01:56:46.049Z,0.00
2018-04-30T01:57:46.112Z,0.00
2018-04-30T01:58:46.165Z,0.00
2018-04-30T01:59:46.233Z,0.00
2018-04-30T02:00:46.297Z,0.00
2018-04-30T02:01:46.469Z,0.00
2018-04-30T02:02:46.425Z,0.00
2018-04-30T02:03:46.489Z,0.00
2018-04-30T02:04:46.553Z,0.00
2018-04-30T02:05:46.625Z,0.00
2018-04-30T02:06:46.699Z,0.00
2018-04-30T02:07:46.765Z,0.00
2018-04-30T02:08:46.813Z,0.00
2018-04-30T02:09:46.881Z,0.00
2018-04-30T02:10:47.737Z,0.00
2018-04-30T02:11:47.025Z,0.00
2018-04-30T02:12:47.085Z,0.00
2018-04-30T02:13:47.145Z,0.00
2018-04-30T02:14:47.201Z,0.00
2018-04-30T02:15:47.265Z,0.00
2018-04-30T02:16:47.350Z,0.00
2018-04-30T02:17:47.413Z,0.00
2018-04-30T02:18:47.465Z,0.00
2018-04-30T02:19:47.537Z,0.00
2018-04-30T02:20:47.601Z,0.00
2018-04-30T02:21:47.688Z,0.00
2018-04-30T02:22:47.753Z,0.00
2018-04-30T02:23:47.809Z,0.00
2018-04-30T02:24:47.860Z,0.00
2018-04-30T02:25:47.921Z,0.00
2018-04-30T02:26:48.001Z,0.00
2018-04-30T02:27:48.061Z,0.00
2018-04-30T02:28:48.105Z,0.00
2018-04-30T02:29:48.186Z,0.00
2018-04-30T02:30:48.251Z,0.00
2018-04-30T02:31:48.314Z,0.00
2018-04-30T02:32:48.538Z,0.00
2018-04-30T02:33:48.442Z,0.00
2018-04-30T02:34:48.506Z,0.00
2018-04-30T02:35:48.562Z,0.00
2018-04-30T02:36:48.642Z,0.00
2018-04-30T02:37:48.714Z,0.00
2018-04-30T02:38:48.778Z,0.00
2018-04-30T02:39:48.839Z,0.00
2018-04-30T02:40:48.899Z,0.00
2018-04-30T02:41:48.950Z,0.00
2018-04-30T02:42:49.034Z,0.00
2018-04-30T02:43:49.112Z,0.00
2018-04-30T02:44:49.147Z,0.00
2018-04-30T02:45:49.218Z,0.00
2018-04-30T02:46:49.299Z,0.00
2018-04-30T02:47:49.352Z,0.00
2018-04-30T02:48:49.422Z,0.00
2018-04-30T02:49:49.470Z,0.00
2018-04-30T02:50:49.531Z,0.00
2018-04-30T02:51:49.607Z,0.00
2018-04-30T02:52:49.683Z,0.00
2018-04-30T02:53:49.755Z,0.00
2018-04-30T02:54:49.799Z,0.00
2018-04-30T02:55:49.867Z,0.00
2018-04-30T02:56:49.923Z,0.00
2018-04-30T02:57:50.028Z,0.00
2018-04-30T02:58:50.063Z,0.00
2018-04-30T02:59:50.123Z,0.00
2018-04-30T03:00:50.194Z,0.00
2018-04-30T03:01:50.251Z,0.00
2018-04-30T03:02:50.431Z,0.00
2018-04-30T03:03:50.391Z,0.00
2018-04-30T03:04:50.451Z,0.00
2018-04-30T03:05:50.511Z,0.00
2018-04-30T03:06:50.571Z,0.00
2018-04-30T03:07:50.647Z,0.00
2018-04-30T03:08:50.727Z,0.00
2018-04-30T03:09:50.908Z,0.00
2018-04-30T03:10:50.839Z,0.00
2018-04-30T03:11:50.903Z,0.00
2018-04-30T03:12:50.999Z,0.00
2018-04-30T03:13:51.067Z,0.00
2018-04-30T03:14:51.100Z,0.00
2018-04-30T03:15:51.159Z,0.00
2018-04-30T03:16:51.287Z,0.00
2018-04-30T03:17:51.295Z,0.00
2018-04-30T03:18:51.519Z,0.00
2018-04-30T03:19:51.415Z,0.00
2018-04-30T03:20:51.471Z,0.00
2018-04-30T03:21:51.547Z,0.00
2018-04-30T03:22:51.615Z,0.00
2018-04-30T03:23:51.684Z,0.00
2018-04-30T03:24:51.749Z,0.00
2018-04-30T03:25:51.816Z,0.00
2018-04-30T03:26:51.863Z,0.00
2018-04-30T03:27:51.923Z,0.00
2018-04-30T03:28:52.012Z,0.00
2018-04-30T03:29:52.080Z,0.00
2018-04-30T03:30:52.127Z,0.00
2018-04-30T03:31:52.192Z,0.00
2018-04-30T03:32:52.256Z,0.00
2018-04-30T03:33:52.324Z,0.00
2018-04-30T03:34:52.416Z,0.00
2018-04-30T03:35:52.454Z,0.00
2018-04-30T03:36:52.520Z,0.00
2018-04-30T03:37:52.572Z,0.00
2018-04-30T03:38:52.648Z,0.00
2018-04-30T03:39:52.723Z,0.00
2018-04-30T03:40:52.776Z,0.00
2018-04-30T03:41:52.828Z,0.00
2018-04-30T03:42:52.892Z,0.00
2018-04-30T03:43:52.964Z,0.00
2018-04-30T03:44:53.040Z,0.00
2018-04-30T03:45:53.104Z,0.00
2018-04-30T03:46:53.152Z,0.00
2018-04-30T03:47:53.223Z,0.00
2018-04-30T03:48:53.282Z,0.00
2018-04-30T03:49:53.500Z,0.00
2018-04-30T03:50:53.413Z,0.00
2018-04-30T03:51:53.474Z,0.00
2018-04-30T03:52:53.545Z,0.00
2018-04-30T03:53:53.608Z,0.00
2018-04-30T03:54:53.676Z,0.00
2018-04-30T03:55:53.740Z,0.00
2018-04-30T03:56:53.801Z,0.00
2018-04-30T03:57:53.864Z,0.00
2018-04-30T03:58:53.926Z,4.00
2018-04-30T03:59:54.004Z,4.00
2018-04-30T04:00:54.065Z,4.00
2018-04-30T04:01:54.121Z,4.00
2018-04-30T04:02:54.185Z,4.00
2018-04-30T04:03:54.253Z,4.00
2018-04-30T04:04:54.321Z,4.00
2018-04-30T04:05:54.396Z,4.00
2018-04-30T04:06:54.446Z,4.00
2018-04-30T04:07:54.510Z,0.00
2018-04-30T04:08:54.577Z,4.00
2018-04-30T04:09:54.653Z,4.00
2018-04-30T04:10:54.709Z,4.00
2018-04-30T04:11:54.781Z,4.00
2018-04-30T04:12:54.838Z,4.00
2018-04-30T04:13:54.894Z,4.00
2018-04-30T04:14:54.962Z,4.00
2018-04-30T04:15:55.034Z,0.00
2018-04-30T04:16:55.094Z,4.00
2018-04-30T04:17:55.156Z,4.00
2018-04-30T04:18:55.214Z,4.00
2018-04-30T04:19:55.290Z,4.00
2018-04-30T04:20:55.522Z,4.00
2018-04-30T04:21:55.414Z,4.00
2018-04-30T04:22:55.478Z,8.00
2018-04-30T04:23:55.544Z,8.00
2018-04-30T04:24:55.606Z,8.00
2018-04-30T04:25:55.682Z,4.00
2018-04-30T04:26:55.746Z,8.00
2018-04-30T04:27:55.798Z,8.00
2018-04-30T04:28:55.862Z,8.00
2018-04-30T04:29:55.926Z,8.00
2018-04-30T04:30:55.998Z,8.00
2018-04-30T04:31:56.062Z,8.00
2018-04-30T04:32:56.123Z,8.00
2018-04-30T04:33:56.186Z,8.00
2018-04-30T04:34:56.250Z,12.00
2018-04-30T04:35:56.318Z,12.00
2018-04-30T04:36:56.403Z,12.00
2018-04-30T04:37:56.442Z,16.00
2018-04-30T04:38:56.502Z,20.00
2018-04-30T04:39:56.816Z,20.00
2018-04-30T04:40:56.642Z,16.00
2018-04-30T04:41:56.710Z,16.00
2018-04-30T04:42:56.774Z,24.00
2018-04-30T04:43:56.827Z,20.00
2018-04-30T04:44:56.890Z,24.00
2018-04-30T04:45:56.959Z,20.00
2018-04-30T04:46:57.070Z,24.00
2018-04-30T04:47:57.095Z,28.00
2018-04-30T04:48:57.150Z,32.00
2018-04-30T04:49:57.211Z,36.00
2018-04-30T04:50:57.279Z,44.00
2018-04-30T04:51:57.359Z,60.00
2018-04-30T04:52:57.407Z,76.00
2018-04-30T04:53:57.481Z,88.00
2018-04-30T04:54:57.535Z,116.00
2018-04-30T04:55:57.603Z,140.00
2018-04-30T04:56:57.663Z,164.00
2018-04-30T04:57:57.739Z,180.00
2018-04-30T04:58:57.791Z,176.00
2018-04-30T04:59:57.859Z,156.00
2018-04-30T05:00:57.921Z,132.00
2018-04-30T05:01:57.995Z,120.00
2018-04-30T05:02:58.056Z,116.00
2018-04-30T05:03:58.111Z,132.00
2018-04-30T05:04:58.176Z,152.00
2018-04-30T05:05:58.239Z,172.00
2018-04-30T05:06:58.316Z,188.00
2018-04-30T05:07:58.367Z,196.00
2018-04-30T05:08:58.431Z,208.00
2018-04-30T05:09:58.498Z,228.00
2018-04-30T05:10:58.576Z,244.00
2018-04-30T05:11:58.635Z,260.00
2018-04-30T05:12:58.692Z,272.00
2018-04-30T05:13:58.752Z,288.00
2018-04-30T05:14:58.816Z,300.00
2018-04-30T05:15:58.879Z,304.00
2018-04-30T05:16:58.956Z,308.00
2018-04-30T05:17:59.012Z,316.00
2018-04-30T05:18:59.071Z,340.00
2018-04-30T05:19:59.136Z,352.00
2018-04-30T05:20:59.239Z,356.00
2018-04-30T05:21:59.284Z,360.00
2018-04-30T05:22:59.332Z,340.00
2018-04-30T05:23:59.392Z,316.00
2018-04-30T05:24:59.456Z,284.00
2018-04-30T05:25:59.520Z,252.00
2018-04-30T05:26:59.592Z,244.00
2018-04-30T05:27:59.653Z,240.00
2018-04-30T05:28:59.713Z,244.00
2018-04-30T05:29:59.776Z,248.00
2018-04-30T05:30:59.840Z,260.00
2018-04-30T05:31:59.912Z,248.00
2018-04-30T05:32:59.972Z,208.00
2018-04-30T05:34:00.033Z,184.00
2018-04-30T05:35:00.096Z,156.00
2018-04-30T05:36:00.160Z,140.00
2018-04-30T05:37:00.376Z,132.00
2018-04-30T05:38:00.289Z,140.00
2018-04-30T05:39:00.352Z,144.00
2018-04-30T05:40:00.417Z,168.00
2018-04-30T05:41:00.486Z,200.00
2018-04-30T05:42:00.552Z,212.00
2018-04-30T05:43:00.616Z,220.00
2018-04-30T05:44:00.677Z,216.00
2018-04-30T05:45:00.737Z,208.00
2018-04-30T05:46:00.864Z,200.00
2018-04-30T05:47:00.874Z,216.00
2018-04-30T05:48:00.962Z,240.00
2018-04-30T05:49:00.993Z,244.00
2018-04-30T05:50:01.062Z,244.00
2018-04-30T05:51:01.125Z,260.00
2018-04-30T05:52:01.210Z,268.00
2018-04-30T05:53:01.262Z,268.00
2018-04-30T05:54:01.318Z,304.00
2018-04-30T05:55:01.383Z,348.00
2018-04-30T05:56:01.446Z,416.00
2018-04-30T05:57:01.517Z,500.00
2018-04-30T05:58:01.593Z,560.00
2018-04-30T05:59:01.637Z,608.00
2018-04-30T06:00:01.702Z,676.00
2018-04-30T06:01:01.766Z,752.00
2018-04-30T06:02:01.838Z,824.00
2018-04-30T06:03:01.903Z,856.00
2018-04-30T06:04:01.962Z,868.00
2018-04-30T06:05:02.022Z,812.00
2018-04-30T06:06:02.091Z,688.00
2018-04-30T06:07:02.435Z,560.00
2018-04-30T06:08:02.219Z,480.00
2018-04-30T06:09:02.286Z,456.00
2018-04-30T06:10:02.347Z,484.00
2018-04-30T06:11:02.410Z,544.00
2018-04-30T06:12:02.486Z,632.00
2018-04-30T06:13:02.546Z,704.00
2018-04-30T06:14:02.602Z,764.00
2018-04-30T06:15:02.667Z,792.00
2018-04-30T06:16:02.733Z,796.00
2018-04-30T06:17:02.803Z,820.00
2018-04-30T06:18:02.867Z,876.00
2018-04-30T06:19:02.927Z,964.00
2018-04-30T06:20:02.991Z,1052.00
2018-04-30T06:21:03.055Z,1120.00
2018-04-30T06:22:03.131Z,1152.00
2018-04-30T06:23:03.184Z,1184.00
2018-04-30T06:24:03.243Z,1176.00
2018-04-30T06:25:03.311Z,1304.00
2018-04-30T06:26:03.375Z,1396.00
2018-04-30T06:27:03.446Z,1360.00
2018-04-30T06:28:03.511Z,1380.00
2018-04-30T06:29:03.567Z,1272.00
2018-04-30T06:30:03.631Z,1240.00
2018-04-30T06:31:03.699Z,1084.00
2018-04-30T06:32:03.767Z,1128.00
2018-04-30T06:33:03.831Z,1288.00
2018-04-30T06:34:03.893Z,1188.00
2018-04-30T06:35:03.955Z,1224.00
2018-04-30T06:36:04.019Z,1184.00
2018-04-30T06:37:04.239Z,1392.00
2018-04-30T06:38:04.148Z,1356.00
2018-04-30T06:39:04.216Z,1472.00
2018-04-30T06:40:04.281Z,1692.00
2018-04-30T06:41:04.339Z,1576.00
2018-04-30T06:42:04.411Z,1468.00
2018-04-30T06:43:04.475Z,1296.00
2018-04-30T06:44:04.548Z,1056.00
2018-04-30T06:45:04.599Z,896.00
2018-04-30T06:46:04.664Z,812.00
2018-04-30T06:47:04.741Z,712.00
2018-04-30T06:48:04.800Z,644.00
2018-04-30T06:49:04.856Z,644.00
2018-04-30T06:50:04.920Z,660.00
2018-04-30T06:51:04.995Z,668.00
2018-04-30T06:52:05.056Z,624.00
2018-04-30T06:53:05.125Z,584.00
2018-04-30T06:54:05.180Z,580.00
2018-04-30T06:55:05.247Z,616.00
2018-04-30T06:56:05.308Z,632.00
2018-04-30T06:57:05.480Z,624.00
2018-04-30T06:58:05.441Z,612.00
2018-04-30T06:59:05.501Z,620.00
2018-04-30T07:00:05.581Z,620.00
2018-04-30T07:01:05.628Z,592.00
2018-04-30T07:02:05.700Z,564.00
2018-04-30T07:03:05.765Z,540.00
2018-04-30T07:04:05.825Z,560.00
2018-04-30T07:05:05.889Z,624.00
2018-04-30T07:06:05.953Z,712.00
2018-04-30T07:07:06.021Z,836.00
2018-04-30T07:08:06.099Z,1068.00
2018-04-30T07:09:06.213Z,1364.00
2018-04-30T07:10:06.210Z,1576.00
2018-04-30T07:11:06.273Z,1600.00
2018-04-30T07:12:06.469Z,1428.00
2018-04-30T07:13:06.401Z,1096.00
2018-04-30T07:14:06.466Z,788.00
2018-04-30T07:15:06.529Z,636.00
2018-04-30T07:16:06.593Z,596.00
2018-04-30T07:17:06.665Z,624.00
2018-04-30T07:18:06.729Z,680.00
2018-04-30T07:19:06.837Z,780.00
2018-04-30T07:20:06.907Z,928.00
2018-04-30T07:21:06.912Z,1092.00
2018-04-30T07:22:06.989Z,1264.00
2018-04-30T07:23:07.050Z,1376.00
2018-04-30T07:24:07.105Z,1300.00
2018-04-30T07:25:07.170Z,1208.00
2018-04-30T07:26:07.230Z,1144.00
2018-04-30T07:27:07.297Z,1056.00
2018-04-30T07:28:07.386Z,948.00
2018-04-30T07:29:07.433Z,916.00
2018-04-30T07:30:07.489Z,948.00
2018-04-30T07:31:07.562Z,1000.00
2018-04-30T07:32:07.622Z,1052.00
2018-04-30T07:33:07.730Z,1080.00
2018-04-30T07:34:07.754Z,1104.00
2018-04-30T07:35:07.814Z,1180.00
2018-04-30T07:36:07.890Z,1256.00
2018-04-30T07:37:07.942Z,1272.00
2018-04-30T07:38:08.054Z,1184.00
2018-04-30T07:39:08.163Z,992.00
2018-04-30T07:40:08.134Z,804.00
2018-04-30T07:41:08.198Z,672.00
2018-04-30T07:42:08.340Z,612.00
2018-04-30T07:43:08.334Z,612.00
2018-04-30T07:44:08.398Z,656.00
2018-04-30T07:45:08.454Z,768.00
2018-04-30T07:46:08.523Z,900.00
2018-04-30T07:47:08.586Z,980.00
2018-04-30T07:48:08.654Z,1020.00
2018-04-30T07:49:08.806Z,980.00
2018-04-30T07:50:08.871Z,856.00
2018-04-30T07:51:09.070Z,776.00
2018-04-30T07:52:09.122Z,872.00
2018-04-30T07:53:08.975Z,1172.00
2018-04-30T07:54:09.038Z,1580.00
2018-04-30T07:55:09.094Z,1988.00
2018-04-30T07:56:09.159Z,2140.00
2018-04-30T07:57:09.287Z,1896.00
2018-04-30T07:58:09.286Z,1584.00
2018-04-30T07:59:09.523Z,1380.00
2018-04-30T08:00:09.419Z,1300.00
2018-04-30T08:01:09.765Z,1248.00
2018-04-30T08:02:09.546Z,1308.00
2018-04-30T08:03:09.673Z,1516.00
2018-04-30T08:04:09.678Z,1680.00
2018-04-30T08:05:09.747Z,1692.00
2018-04-30T08:06:09.803Z,1620.00
2018-04-30T08:07:09.867Z,1468.00
2018-04-30T08:08:09.931Z,1332.00
2018-04-30T08:09:10.014Z,1296.00
2018-04-30T08:10:10.068Z,1344.00
2018-04-30T08:11:10.131Z,1436.00
2018-04-30T08:12:10.187Z,1552.00
2018-04-30T08:13:10.252Z,1728.00
2018-04-30T08:14:10.321Z,1824.00
2018-04-30T08:15:10.495Z,1956.00
2018-04-30T08:16:10.464Z,2188.00
2018-04-30T08:17:10.507Z,2256.00
2018-04-30T08:18:10.584Z,2280.00
2018-04-30T08:19:10.648Z,2548.00
2018-04-30T08:20:10.716Z,2840.00
2018-04-30T08:21:10.776Z,2948.00
2018-04-30T08:22:10.832Z,2836.00
2018-04-30T08:23:10.896Z,2516.00
2018-04-30T08:24:10.960Z,2240.00
2018-04-30T08:25:11.033Z,2100.00
2018-04-30T08:26:11.108Z,2092.00
2018-04-30T08:27:11.152Z,2112.00
2018-04-30T08:28:11.215Z,2156.00
2018-04-30T08:29:11.280Z,2228.00
2018-04-30T08:30:11.396Z,2216.00
2018-04-30T08:31:11.420Z,2184.00
2018-04-30T08:32:11.512Z,2260.00
2018-04-30T08:33:11.548Z,2292.00
2018-04-30T08:34:11.604Z,2332.00
2018-04-30T08:35:11.684Z,2428.00
2018-04-30T08:36:11.740Z,2508.00
2018-04-30T08:37:11.796Z,2392.00
2018-04-30T08:38:11.862Z,2164.00
2018-04-30T08:39:11.928Z,1948.00
2018-04-30T08:40:12.001Z,1760.00
2018-04-30T08:41:12.065Z,1652.00
2018-04-30T08:42:12.120Z,1624.00
2018-04-30T08:43:12.184Z,1676.00
2018-04-30T08:44:12.257Z,1772.00
2018-04-30T08:45:12.485Z,1948.00
2018-04-30T08:46:12.377Z,2328.00
2018-04-30T08:47:12.444Z,2636.00
2018-04-30T08:48:12.513Z,2732.00
2018-04-30T08:49:12.593Z,2680.00
2018-04-30T08:50:12.645Z,2596.00
2018-04-30T08:51:12.709Z,2500.00
2018-04-30T08:52:12.836Z,2388.00
2018-04-30T08:53:12.828Z,2316.00
2018-04-30T08:54:12.893Z,2212.00
2018-04-30T08:55:12.965Z,2120.00
2018-04-30T08:56:13.029Z,1996.00
2018-04-30T08:57:13.097Z,1864.00
2018-04-30T08:58:13.153Z,1728.00
2018-04-30T08:59:13.218Z,1608.00
2018-04-30T09:00:13.399Z,1584.00
2018-04-30T09:01:13.489Z,1700.00
2018-04-30T09:02:13.411Z,1776.00
2018-04-30T09:03:13.477Z,1724.00
2018-04-30T09:04:13.541Z,1728.00
2018-04-30T09:05:13.610Z,1728.00
2018-04-30T09:06:13.678Z,1696.00
2018-04-30T09:07:13.738Z,1784.00
2018-04-30T09:08:13.798Z,1952.00
2018-04-30T09:09:13.861Z,2080.00
2018-04-30T09:10:13.934Z,2124.00
2018-04-30T09:11:13.997Z,2112.00
2018-04-30T09:12:14.061Z,2072.00
2018-04-30T09:13:14.121Z,1996.00
2018-04-30T09:14:14.186Z,1924.00
2018-04-30T09:15:14.249Z,1928.00
2018-04-30T09:16:14.342Z,1972.00
2018-04-30T09:17:14.382Z,2012.00
2018-04-30T09:18:14.447Z,2072.00
2018-04-30T09:19:14.509Z,2152.00
2018-04-30T09:20:14.579Z,2152.00
2018-04-30T09:21:14.649Z,2152.00
2018-04-30T09:22:14.710Z,2304.00
2018-04-30T09:23:14.777Z,2688.00
2018-04-30T09:24:14.834Z,2752.00
2018-04-30T09:25:14.898Z,2476.00
2018-04-30T09:26:14.968Z,2060.00
2018-04-30T09:27:15.034Z,2024.00
2018-04-30T09:28:15.105Z,2808.00
2018-04-30T09:29:15.154Z,3480.00
2018-04-30T09:30:15.219Z,3692.00
2018-04-30T09:31:15.318Z,3800.00
2018-04-30T09:32:15.410Z,3708.00
2018-04-30T09:33:15.414Z,3560.00
2018-04-30T09:34:15.543Z,3468.00
2018-04-30T09:35:15.546Z,3384.00
2018-04-30T09:36:15.619Z,3368.00
2018-04-30T09:37:15.678Z,3580.00
2018-04-30T09:38:15.739Z,4028.00
2018-04-30T09:39:15.859Z,4512.00
2018-04-30T09:40:15.878Z,4536.00
2018-04-30T09:41:15.938Z,4004.00
2018-04-30T09:42:16.006Z,3512.00
2018-04-30T09:43:16.063Z,3532.00
2018-04-30T09:44:16.131Z,3644.00
2018-04-30T09:45:16.203Z,3772.00
2018-04-30T09:46:16.431Z,3876.00
2018-04-30T09:47:16.325Z,3840.00
2018-04-30T09:48:16.391Z,3668.00
2018-04-30T09:49:16.477Z,3616.00
2018-04-30T09:50:16.519Z,3872.00
2018-04-30T09:51:16.591Z,5012.00
2018-04-30T09:52:16.655Z,5788.00
2018-04-30T09:53:16.716Z,5960.00
2018-04-30T09:54:16.791Z,5676.00
2018-04-30T09:55:16.848Z,4940.00
2018-04-30T09:56:16.921Z,4252.00
2018-04-30T09:57:16.984Z,3704.00
2018-04-30T09:58:17.039Z,3244.00
2018-04-30T09:59:17.120Z,2836.00
2018-04-30T10:00:17.179Z,2508.00
2018-04-30T10:01:17.263Z,2312.00
2018-04-30T10:02:17.383Z,2336.00
2018-04-30T10:03:17.444Z,2444.00
2018-04-30T10:04:17.444Z,2432.00
2018-04-30T10:05:17.508Z,2408.00
2018-04-30T10:06:17.571Z,2424.00
2018-04-30T10:07:17.741Z,2424.00
2018-04-30T10:08:17.732Z,2424.00
2018-04-30T10:09:17.760Z,2472.00
2018-04-30T10:10:17.844Z,2640.00
2018-04-30T10:11:17.892Z,3072.00
2018-04-30T10:12:18.056Z,3972.00
2018-04-30T10:13:18.336Z,5308.00
2018-04-30T10:14:18.084Z,5904.00
2018-04-30T10:15:18.156Z,6376.00
2018-04-30T10:16:18.236Z,7696.00
2018-04-30T10:17:18.442Z,8972.00
2018-04-30T10:18:18.352Z,9140.00
2018-04-30T10:19:18.416Z,7784.00
2018-04-30T10:20:18.508Z,6568.00
2018-04-30T10:21:18.549Z,5644.00
2018-04-30T10:22:18.627Z,4864.00
2018-04-30T10:23:18.703Z,4396.00
2018-04-30T10:24:18.744Z,4144.00
2018-04-30T10:25:18.845Z,3744.00
2018-04-30T10:26:18.897Z,3268.00
2018-04-30T10:27:18.949Z,2940.00
2018-04-30T10:28:19.021Z,2856.00
2018-04-30T10:29:19.081Z,2660.00
2018-04-30T10:30:19.142Z,2328.00
2018-04-30T10:31:19.224Z,2244.00
2018-04-30T10:32:19.437Z,2552.00
2018-04-30T10:33:19.355Z,2736.00
2018-04-30T10:34:19.409Z,2592.00
2018-04-30T10:35:19.469Z,2328.00
2018-04-30T10:36:19.537Z,2192.00
2018-04-30T10:37:19.653Z,2308.00
2018-04-30T10:38:19.673Z,2568.00
2018-04-30T10:39:19.741Z,2912.00
2018-04-30T10:40:19.811Z,3300.00
2018-04-30T10:41:19.865Z,3780.00
2018-04-30T10:42:19.957Z,4500.00
2018-04-30T10:43:20.041Z,5084.00
2018-04-30T10:44:20.064Z,4768.00
2018-04-30T10:45:20.121Z,4312.00
2018-04-30T10:46:20.201Z,4196.00
2018-04-30T10:47:20.257Z,4084.00
2018-04-30T10:48:20.484Z,3728.00
2018-04-30T10:49:20.457Z,3208.00
2018-04-30T10:50:20.474Z,2792.00
2018-04-30T10:51:20.522Z,2668.00
2018-04-30T10:52:20.589Z,2856.00
2018-04-30T10:53:20.706Z,3260.00
2018-04-30T10:54:20.846Z,3756.00
2018-04-30T10:55:20.782Z,4208.00
2018-04-30T10:56:20.894Z,4440.00
2018-04-30T10:57:20.910Z,4368.00
2018-04-30T10:58:21.034Z,4364.00
2018-04-30T10:59:21.074Z,4408.00
2018-04-30T11:00:21.110Z,4340.00
2018-04-30T11:01:21.166Z,4124.00
2018-04-30T11:02:21.294Z,3992.00
2018-04-30T11:03:21.475Z,3896.00
2018-04-30T11:04:21.366Z,3808.00
2018-04-30T11:05:21.439Z,3576.00
2018-04-30T11:06:21.506Z,3436.00
2018-04-30T11:07:21.574Z,3200.00
2018-04-30T11:08:21.655Z,3024.00
2018-04-30T11:09:21.736Z,2896.00
2018-04-30T11:10:21.772Z,2756.00
2018-04-30T11:11:21.831Z,2600.00
2018-04-30T11:12:22.049Z,2552.00
2018-04-30T11:13:21.984Z,2648.00
2018-04-30T11:14:22.039Z,2992.00
2018-04-30T11:15:22.090Z,3696.00
2018-04-30T11:16:22.159Z,4256.00
2018-04-30T11:17:22.227Z,4260.00
2018-04-30T11:18:22.443Z,4204.00
2018-04-30T11:19:22.688Z,4212.00
2018-04-30T11:20:22.419Z,4220.00
2018-04-30T11:21:22.495Z,4296.00
2018-04-30T11:22:22.559Z,4540.00
2018-04-30T11:23:22.641Z,5016.00
2018-04-30T11:24:22.679Z,5956.00
2018-04-30T11:25:22.747Z,6968.00
2018-04-30T11:26:22.808Z,8460.00
2018-04-30T11:27:22.928Z,10092.00
2018-04-30T11:28:22.960Z,8184.00
2018-04-30T11:29:23.036Z,9336.00
2018-04-30T11:30:23.068Z,7104.00
2018-04-30T11:31:23.140Z,7152.00
2018-04-30T11:32:23.231Z,7608.00
2018-04-30T11:33:23.263Z,8268.00
2018-04-30T11:34:23.492Z,8052.00
2018-04-30T11:35:23.407Z,6724.00
2018-04-30T11:36:23.463Z,5824.00
2018-04-30T11:37:23.536Z,5256.00
2018-04-30T11:38:23.612Z,5020.00
2018-04-30T11:39:23.687Z,4888.00
2018-04-30T11:40:23.744Z,4948.00
2018-04-30T11:41:23.800Z,4976.00
2018-04-30T11:42:23.869Z,4976.00
2018-04-30T11:43:23.937Z,4968.00
2018-04-30T11:44:24.016Z,5052.00
2018-04-30T11:45:24.092Z,5140.00
2018-04-30T11:46:24.133Z,5208.00
2018-04-30T11:47:24.208Z,4212.00
2018-04-30T11:48:24.264Z,5636.00
2018-04-30T11:49:24.336Z,3520.00
2018-04-30T11:50:24.704Z,4136.00
2018-04-30T11:51:24.465Z,3516.00
2018-04-30T11:52:24.533Z,3640.00
2018-04-30T11:53:24.600Z,4044.00
2018-04-30T11:54:24.664Z,7304.00
2018-04-30T11:55:24.748Z,4604.00
2018-04-30T11:56:24.804Z,4168.00
2018-04-30T11:57:24.869Z,4604.00
2018-04-30T11:58:24.937Z,5104.00
2018-04-30T11:59:24.993Z,4880.00
2018-04-30T12:00:25.069Z,4948.00
2018-04-30T12:01:25.143Z,4848.00
2018-04-30T12:02:25.225Z,5040.00
2018-04-30T12:03:25.261Z,6652.00
2018-04-30T12:04:25.328Z,6524.00
2018-04-30T12:05:25.403Z,5836.00
2018-04-30T12:06:25.473Z,5700.00
2018-04-30T12:07:25.525Z,6008.00
2018-04-30T12:08:25.595Z,6296.00
2018-04-30T12:09:25.661Z,6152.00
2018-04-30T12:10:25.733Z,6140.00
2018-04-30T12:11:25.801Z,5940.00
2018-04-30T12:12:25.861Z,5484.00
2018-04-30T12:13:25.930Z,5296.00
2018-04-30T12:14:25.990Z,5016.00
2018-04-30T12:15:26.070Z,4380.00
2018-04-30T12:16:26.129Z,3512.00
2018-04-30T12:17:26.193Z,2808.00
2018-04-30T12:18:26.260Z,2832.00
2018-04-30T12:19:26.318Z,3348.00
2018-04-30T12:20:30.194Z,3380.00
2018-04-30T12:21:26.460Z,2932.00
2018-04-30T12:22:26.535Z,2488.00
2018-04-30T12:23:26.590Z,1800.00
2018-04-30T12:24:26.653Z,1628.00
2018-04-30T12:25:26.718Z,1728.00
2018-04-30T12:26:26.947Z,1752.00
2018-04-30T12:27:26.862Z,1840.00
2018-04-30T12:28:26.926Z,2360.00
2018-04-30T12:29:26.986Z,3284.00
2018-04-30T12:30:27.050Z,4824.00
2018-04-30T12:31:27.174Z,6180.00
2018-04-30T12:32:27.186Z,6604.00
2018-04-30T12:33:27.280Z,6272.00
2018-04-30T12:34:27.318Z,5168.00
2018-04-30T12:35:27.382Z,4136.00
2018-04-30T12:36:27.454Z,3476.00